新千歳空港の過去48時間の天気

新千歳空港 (Sapporo/New Chitose)

現在時刻: 9/28 19:01 JST (9/28 10:01 UTC) 以下の時間は現地時間です。

過去48時間のMETAR気象情報
時間 風向 風速(m/s) 視程 気温(℃) 湿度(%) 気圧(hPa) 天気現象
28 18:30 北北東 2 10km以上 13 77 1014
28 18:00 3 10km以上 14 72 1013
28 17:30 北北西 3 10km以上 15 63 1013
28 17:00 北北西 5 10km以上 16 59 1012
28 16:30 北北西 7 10km以上 17 55 1012
28 16:00 北北西 7 10km以上 18 52 1012
28 15:30 北西 9 10km以上 18 49 1012
28 15:00 北西 9 10km以上 19 46 1012
28 14:30 北西 10 10km以上 19 46 1011
28 14:00 北西 8 10km以上 20 46 1011
28 13:30 北北西 9 10km以上 18 52 1011
28 13:00 北北西 9 10km以上 19 52 1011
28 12:30 北北西 9 10km以上 19 52 1012
28 12:00 北北西 8 10km以上 19 52 1012
28 11:30 北北西 5 10km以上 18 64 1012
28 11:00 6 10km以上 17 59 1012
28 10:30 7 10km以上 17 55 1012
28 10:00 6 10km以上 17 59 1012
28 09:30 7 10km以上 17 59 1012
28 09:00 北北西 6 10km以上 15 67 1012
28 08:30 北北西 6 10km以上 14 67 1012 周辺でしゅう雨
28 08:00 北北西 7 10km以上 14 67 1012
28 07:30 5 10km以上 13 77 1012
28 07:00 5 10km以上 12 77 1011
28 06:30 北北西 5 10km以上 12 77 1011
28 06:00 北北西 5 10km以上 12 82 1011
28 05:30 北北西 5 10km以上 12 82 1011
28 05:00 北北西 5 10km以上 12 82 1010
28 04:30 4 10km以上 12 82 1010
28 04:00 北北西 5 10km以上 12 82 1010
28 03:30 5 10km以上 13 77 1010
28 03:00 5 10km以上 12 82 1009
28 02:30 5 10km以上 13 82 1009
28 02:00 5 10km以上 13 82 1009
28 01:30 5 10km以上 13 82 1009
28 01:00 6 10km以上 13 82 1009
28 00:30 北北西 5 10km以上 13 82 1009 弱いしゅう雨
28 00:00 北北西 6 10km以上 13 82 1008
27 23:30 北北西 5 10km以上 13 77 1008
27 23:00 北北西 7 10km以上 13 82 1008
27 22:30 北北西 7 10km以上 13 82 1008
27 22:00 北北西 7 10km以上 14 77 1008
27 21:30 北北西 8 10km以上 14 77 1008
27 21:00 北北西 8 10km以上 14 77 1008
27 20:30 北北西 8 10km以上 14 77 1008
27 20:00 北北西 9 10km以上 14 77 1008
27 19:30 8 10km以上 14 77 1008
27 19:00 7 10km以上 15 72 1008
27 18:30 8 10km以上 15 77 1008
27 18:00 7 10km以上 16 72 1008
27 17:30 7 10km以上 16 72 1008
27 17:00 6 10km以上 17 68 1007
27 16:30 北北西 7 10km以上 18 68 1007
27 16:00 北西 7 10km以上 18 64 1007
27 15:30 9 10km以上 18 64 1007
27 15:00 7 10km以上 19 64 1007
27 14:30 8 10km以上 19 60 1008
27 14:00 北北西 8 10km以上 19 60 1008
27 13:30 8 10km以上 19 64 1007
27 13:00 8 10km以上 19 64 1008
27 12:30 8 10km以上 19 64 1008
27 12:00 北北西 7 10km以上 19 60 1008
27 11:30 北北西 9 10km以上 19 64 1008
27 11:00 北北西 8 10km以上 18 68 1008
27 10:30 北北西 9 10km以上 18 64 1009
27 10:00 北北西 9 10km以上 17 68 1009
27 09:30 北北西 8 10km以上 17 68 1010
27 09:00 北北西 8 10km以上 16 77 1010
27 08:30 北北西 8 10km以上 15 77 1010
27 08:00 北北西 7 10km以上 15 77 1009
27 07:30 北北西 8 10km以上 14 82 1009
27 07:00 北北西 7 10km以上 14 82 1010
27 06:30 北北西 7 10km以上 14 82 1010
27 06:00 北北西 7 10km以上 14 82 1010
27 05:30 北北西 6 10km以上 13 88 1010
27 05:00 北北西 7 10km以上 13 88 1010
27 04:30 北北西 7 10km以上 13 88 1010
RJCC 280930Z 02003KT 250V040 9999 FEW030 13/09 Q1014
RJCC 280900Z 35006KT 300V010 9999 FEW030 14/09 Q1013 RMK 1CU030 A2993
RJCC 280830Z 34006KT 9999 FEW030 15/08 Q1013 RMK 1CU030 A2992
RJCC 280800Z 34010KT 9999 FEW030 16/08 Q1012 RMK 1CU030 A2991
RJCC 280730Z 33014KT 9999 FEW030 17/08 Q1012 RMK 1CU030 A2990
RJCC 280700Z 34014KT 9999 FEW030 18/08 Q1012 RMK 1CU030 A2990
RJCC 280630Z 32018KT 9999 FEW030 18/07 Q1012 RMK 1CU030 A2988
RJCC 280600Z 32018KT 9999 FEW030 19/07 Q1012 RMK 1CU030 A2988
RJCC 280530Z 32019KT 9999 FEW030 19/07 Q1011 RMK 1CU030 A2988
RJCC 280500Z 32016KT 9999 FEW030 20/08 Q1011 RMK 1CU030 A2988
RJCC 280430Z 33017KT 9999 FEW030 SCT040 18/08 Q1011 RMK 1CU030 3CU040 A2987
RJCC 280400Z 34017KT 9999 FEW030 SCT040 19/09 Q1011 RMK 1CU030 4CU040 A2988
RJCC 280330Z 34017KT 9999 FEW030 BKN040 19/09 Q1012 RMK 1CU030 5CU040 A2988
RJCC 280300Z 34015KT 9999 FEW030 BKN040 19/09 Q1012 RMK 1CU030 6CU040 A2989
RJCC 280230Z 34009KT 300V360 9999 FEW030 BKN040 18/11 Q1012 RMK 1CU030 6CU040 A2989
RJCC 280200Z 36011KT 9999 FEW030 BKN040 17/09 Q1012 RMK 1CU030 7CU040 A2990
RJCC 280130Z 36013KT 9999 FEW030 BKN040 17/08 Q1012 RMK 1CU030 6CU040 A2990
RJCC 280100Z 01012KT 9999 FEW020 BKN040 17/09 Q1012 RMK 1CU020 5CU040 A2990
RJCC 280030Z 01013KT 9999 FEW020 SCT030 17/09 Q1012 RMK 1CU020 3CU030 A2990
RJCC 280000Z 34011KT 9999 FEW020 15/09 Q1012 RMK 1CU020 A2990
RJCC 272330Z 34012KT 9999 VCSH FEW010 SCT035 BKN045 14/08 Q1012 RMK 1ST010 3CU035 6CU045 A2991 SH W
RJCC 272300Z 34013KT 9999 FEW020 BKN060 14/08 Q1012 RMK 1CU020 5CU060 A2990
RJCC 272230Z 35010KT 9999 FEW020 13/09 Q1012 RMK 1CU020 A2989
RJCC 272200Z 35010KT 9999 FEW020 SCT035 12/08 Q1011 RMK 1CU020 4CU035 A2988
RJCC 272130Z 34010KT 9999 FEW015 BKN045 12/08 Q1011 RMK 1ST015 5CU045 A2987
RJCC 272100Z 34010KT 9999 FEW020 BKN040 12/09 Q1011 RMK 1CU020 7CU040 A2987
RJCC 272030Z 34010KT 9999 FEW015 BKN040 12/09 Q1011 RMK 1ST015 7CU040 A2986
RJCC 272000Z 34009KT 9999 FEW025 BKN050 BKN160 12/09 Q1010 RMK 1CU025 5CU050 6AC160 A2985
RJCC 271930Z 35008KT 9999 FEW025 SCT040 BKN150 12/09 Q1010 RMK 1CU025 4CU040 6AC150 A2984
RJCC 271900Z 34009KT 9999 FEW025 BKN035 12/09 Q1010 RMK 1CU025 6CU035 A2984
RJCC 271830Z 35009KT 9999 FEW025 BKN035 BKN130 13/09 Q1010 RMK 1CU025 5CU035 6AC130 A2982
RJCC 271800Z 35009KT 9999 FEW025 BKN150 12/09 Q1009 RMK 1CU025 6AC150 A2981
RJCC 271730Z 35010KT 9999 FEW025 BKN130 13/10 Q1009 RMK 1CU025 7AC130 A2981
RJCC 271700Z 35010KT 9999 FEW025 BKN130 13/10 Q1009 RMK 1CU025 5AC130 A2981
RJCC 271630Z 35010KT 9999 FEW025 SCT045 BKN130 13/10 Q1009 RMK 1CU025 3CU045 6AC130 A2980
RJCC 271600Z 35011KT 9999 FEW025 SCT110 BKN170 13/10 Q1009 RMK 1CU025 4AC110 5AC170 A2979
RJCC 271530Z 34010KT 9999 -SHRA FEW025 SCT040 BKN120 13/10 Q1009 RMK 1CU025 3CU040 6AC120 A2979
RJCC 271500Z 34011KT 9999 FEW025 SCT110 BKN130 13/10 Q1008 RMK 1CU025 3AC110 6AC130 A2979
RJCC 271430Z 34010KT 9999 FEW025 SCT130 13/09 Q1008 RMK 1CU025 4AC130 A2979
RJCC 271400Z 34013KT 9999 FEW025 SCT120 13/10 Q1008 RMK 1CU025 3AC120 A2979
RJCC 271330Z 34014KT 9999 FEW025 SCT120 13/10 Q1008 RMK 1CU025 4AC120 A2979
RJCC 271300Z 34014KT 9999 FEW025 BKN090 14/10 Q1008 RMK 1CU025 6AC090 A2979
RJCC 271230Z 34015KT 9999 FEW025 BKN090 14/10 Q1008 RMK 1CU025 6AC090 A2979
RJCC 271200Z 34015KT 9999 FEW025 BKN090 14/10 Q1008 RMK 1CU025 7AC090 A2979
RJCC 271130Z 34016KT 9999 FEW025 BKN090 14/10 Q1008 RMK 1CU025 7AC090 A2979
RJCC 271100Z 34017KT 9999 FEW025 SCT070 BKN090 14/10 Q1008 RMK 1CU025 3AC070 7AC090 A2979
RJCC 271030Z 35015KT 9999 FEW025 BKN070 BKN100 14/10 Q1008 RMK 1CU025 5AC070 7AC100 A2978
RJCC 271000Z 35014KT 9999 FEW025 BKN070 BKN100 15/10 Q1008 RMK 1CU025 5AC070 6AC100 A2978
RJCC 270930Z 35015KT 9999 FEW025 BKN070 15/11 Q1008 RMK 1CU025 6AC070 A2977
RJCC 270900Z 35013KT 9999 FEW025 BKN070 16/11 Q1008 RMK 1CU025 6AC070 A2977
RJCC 270830Z 35013KT 9999 FEW025 BKN060 BKN070 16/11 Q1008 RMK 1CU025 5CU060 7AC070 A2977
RJCC 270800Z 35012KT 9999 FEW025 BKN060 17/11 Q1007 RMK 1CU025 7CU060 A2976
RJCC 270730Z 34013KT 9999 FEW030 BKN060 BKN080 18/12 Q1007 RMK 2CU030 5CU060 7AC080 A2976
RJCC 270700Z 32014KT 9999 FEW030 BKN050 BKN070 18/11 Q1007 RMK 2CU030 5CU050 7AC070 A2976
RJCC 270630Z 35017KT 9999 FEW030 SCT050 BKN070 18/11 Q1007 RMK 1CU030 4CU050 7AC070 A2976
RJCC 270600Z 35013KT 9999 FEW030 SCT050 BKN080 19/12 Q1007 RMK 1CU030 4CU050 7AC080 A2976
RJCC 270530Z 35016KT 9999 FEW030 SCT070 BKN080 19/11 Q1008 RMK 1CU030 4AC070 7AC080 A2977
RJCC 270500Z 34016KT 9999 FEW030 BKN080 19/11 Q1008 RMK 1CU030 5AC080 A2977
RJCC 270430Z 35015KT 9999 FEW030 SCT080 19/12 Q1007 RMK 1CU030 4AC080 A2976
RJCC 270400Z 35015KT 9999 FEW030 BKN080 19/12 Q1008 RMK 1CU030 5AC080 A2977
RJCC 270330Z 35016KT 9999 FEW030 BKN060 19/12 Q1008 RMK 1CU030 5CU060 A2978
RJCC 270300Z 34014KT 320V020 9999 FEW030 SCT060 19/11 Q1008 RMK 1CU030 3CU060 A2978
RJCC 270230Z 34017KT 9999 FEW030 SCT060 19/12 Q1008 RMK 1CU030 3CU060 A2978
RJCC 270200Z 34016KT 9999 FEW030 SCT060 18/12 Q1008 RMK 1CU030 3CU060 A2979
RJCC 270130Z 34017KT 9999 FEW030 SCT060 BKN100 18/11 Q1009
RJCC 270100Z 33018KT 9999 FEW030 SCT060 BKN100 17/11 Q1009 RMK 1CU030 3CU060 7AC100 A2982
RJCC 270030Z 33015KT 9999 FEW030 BKN100 17/11 Q1010 RMK 1CU030 7AC100 A2983
RJCC 270000Z 34016KT 9999 FEW030 BKN100 16/12 Q1010 RMK 1CU030 7AC100 A2982
RJCC 262330Z 33015KT 9999 FEW030 SCT050 BKN160 15/11 Q1010 RMK 1CU030 3SC050 7AC160 A2983
RJCC 262300Z 34014KT 9999 FEW030 SCT050 BKN160 15/11 Q1009
RJCC 262230Z 34015KT 9999 FEW030 SCT050 BKN170 14/11 Q1009 RMK 1CU030 3SC050 7AC170 A2982
RJCC 262200Z 34014KT 9999 FEW030 SCT050 BKN170 14/11 Q1010 RMK 1CU030 3SC050 6AC170 A2983
RJCC 262130Z 33013KT 9999 FEW030 BKN050 BKN/// 14/11 Q1010 RMK 1CU030 5SC050 A2984
RJCC 262100Z 33013KT 9999 FEW030 SCT050 BKN/// 14/11 Q1010
RJCC 262030Z 34012KT 9999 FEW030 SCT050 BKN/// 13/11 Q1010 RMK 1CU030 3CU050 A2984
RJCC 262000Z 33013KT 9999 FEW030 SCT050 BKN/// 13/11 Q1010 RMK 1CU030 3CU050 A2984
RJCC 261930Z 34013KT 9999 FEW030 BKN/// 13/11 Q1010 RMK 1CU030 A2984